createdAt,value
2023-04-03T00:01:06.130Z,2.50
2023-04-03T00:03:33.363Z,2.50
2023-04-03T00:06:00.648Z,2.50
2023-04-03T00:08:27.480Z,2.50
2023-04-03T00:10:54.187Z,2.50
2023-04-03T00:13:20.968Z,2.40
2023-04-03T00:15:49.480Z,2.40
2023-04-03T00:18:16.178Z,1.50
2023-04-03T00:20:42.902Z,2.50
2023-04-03T00:23:10.005Z,2.40
2023-04-03T00:25:36.958Z,2.40
2023-04-03T00:28:04.589Z,2.50
2023-04-03T00:30:31.507Z,2.50
2023-04-03T00:32:58.596Z,2.40
2023-04-03T00:35:25.930Z,2.40
2023-04-03T00:37:54.180Z,2.50
2023-04-03T00:40:21.747Z,2.40
2023-04-03T00:42:49.714Z,2.50
2023-04-03T00:45:16.472Z,5.20
2023-04-03T00:47:43.472Z,2.30
2023-04-03T00:50:10.650Z,2.40
2023-04-03T00:52:38.825Z,2.40
2023-04-03T00:55:07.472Z,2.40
2023-04-03T00:57:34.632Z,2.40
2023-04-03T01:00:10.103Z,2.40
2023-04-03T01:02:37.310Z,2.40
2023-04-03T01:05:04.447Z,2.40
2023-04-03T01:07:31.770Z,2.30
2023-04-03T01:09:59.543Z,3.80
2023-04-03T01:12:27.630Z,2.30
2023-04-03T01:14:58.881Z,2.30
2023-04-03T01:17:25.721Z,2.30
2023-04-03T01:19:58.372Z,2.60
2023-04-03T01:22:31.783Z,2.40
2023-04-03T01:24:58.816Z,5.20
2023-04-03T01:27:25.861Z,2.30
2023-04-03T01:29:52.819Z,2.30
2023-04-03T01:32:19.499Z,2.30
2023-04-03T01:34:46.289Z,2.30
2023-04-03T01:37:12.959Z,2.20
2023-04-03T01:39:39.996Z,2.30
2023-04-03T01:42:06.715Z,5.10
2023-04-03T01:44:33.447Z,2.30
2023-04-03T01:47:00.366Z,2.30
2023-04-03T01:49:27.191Z,2.30
2023-04-03T01:51:53.897Z,2.20
2023-04-03T01:54:20.620Z,2.30
2023-04-03T01:56:47.365Z,2.30
2023-04-03T01:59:14.246Z,2.20
2023-04-03T02:01:41.032Z,2.20
2023-04-03T02:04:07.844Z,4.20
2023-04-03T02:06:34.844Z,2.10
2023-04-03T02:09:01.718Z,2.20
2023-04-03T02:11:28.521Z,2.10
2023-04-03T02:13:55.200Z,4.40
2023-04-03T02:16:21.859Z,2.10
2023-04-03T02:18:48.969Z,2.10
2023-04-03T02:21:15.693Z,4.50
2023-04-03T02:23:42.369Z,2.10
2023-04-03T02:26:13.059Z,2.10
2023-04-03T02:28:40.831Z,2.10
2023-04-03T02:31:07.919Z,2.10
2023-04-03T02:33:35.122Z,2.00
2023-04-03T02:36:01.906Z,2.00
2023-04-03T02:38:28.757Z,2.00
2023-04-03T02:41:00.470Z,2.00
2023-04-03T02:43:27.096Z,2.10
2023-04-03T02:45:53.780Z,2.00
2023-04-03T02:48:20.416Z,2.00
2023-04-03T02:50:47.057Z,2.00
2023-04-03T02:53:13.766Z,2.00
2023-04-03T02:55:40.757Z,2.00
2023-04-03T02:58:09.600Z,2.00
2023-04-03T03:00:36.880Z,2.00
2023-04-03T03:03:03.857Z,2.00
2023-04-03T03:05:31.161Z,1.90
2023-04-03T03:07:58.091Z,2.00
2023-04-03T03:10:24.878Z,1.90
2023-04-03T03:12:51.895Z,1.90
2023-04-03T03:15:20.416Z,1.90
2023-04-03T03:17:47.242Z,1.90
2023-04-03T03:20:16.157Z,1.90
2023-04-03T03:22:42.942Z,1.90
2023-04-03T03:25:09.944Z,1.90
2023-04-03T03:27:36.635Z,1.90
2023-04-03T03:30:03.905Z,1.90
2023-04-03T03:32:30.626Z,1.90
2023-04-03T03:34:57.298Z,2.00
2023-04-03T03:37:24.101Z,1.90
2023-04-03T03:39:50.840Z,1.90
2023-04-03T03:42:17.550Z,1.90
2023-04-03T03:44:44.571Z,1.90
2023-04-03T03:47:11.797Z,1.90
2023-04-03T03:49:38.520Z,1.90
2023-04-03T03:52:05.158Z,1.90
2023-04-03T03:54:32.260Z,1.90
2023-04-03T03:56:58.972Z,1.90
2023-04-03T03:59:26.023Z,1.90
2023-04-03T04:01:52.786Z,3.60
2023-04-03T04:04:19.755Z,4.30
2023-04-03T04:06:46.628Z,1.80
2023-04-03T04:09:13.700Z,1.80
2023-04-03T04:11:41.447Z,1.80
2023-04-03T04:14:08.238Z,1.90
2023-04-03T04:16:34.974Z,1.90
2023-04-03T04:19:02.122Z,2.00
2023-04-03T04:21:29.060Z,4.70
2023-04-03T04:23:55.838Z,1.90
2023-04-03T04:26:22.492Z,1.90
2023-04-03T04:28:49.215Z,2.00
2023-04-03T04:31:15.890Z,2.40
2023-04-03T04:33:42.647Z,2.00
2023-04-03T04:36:09.531Z,2.00
2023-04-03T04:38:36.608Z,3.80
2023-04-03T04:41:03.325Z,2.00
2023-04-03T04:43:29.949Z,5.10
2023-04-03T04:46:03.878Z,2.00
2023-04-03T04:48:32.582Z,1.90
2023-04-03T04:50:59.485Z,1.90
2023-04-03T04:53:26.303Z,2.00
2023-04-03T04:55:53.679Z,4.10
2023-04-03T04:58:21.131Z,2.00
2023-04-03T05:00:48.146Z,2.00
2023-04-03T05:03:14.941Z,2.00
2023-04-03T05:05:41.675Z,2.00
2023-04-03T05:08:09.370Z,2.00
2023-04-03T05:10:36.446Z,2.00
2023-04-03T05:13:03.162Z,2.00
2023-04-03T05:15:29.793Z,2.00
2023-04-03T05:17:56.455Z,2.00
2023-04-03T05:20:23.056Z,2.00
2023-04-03T05:22:50.023Z,2.10
2023-04-03T05:25:16.656Z,2.00
2023-04-03T05:27:43.290Z,3.70
2023-04-03T05:30:10.055Z,2.10
2023-04-03T05:32:36.795Z,2.10
2023-04-03T05:35:03.572Z,2.10
2023-04-03T05:37:30.733Z,2.10
2023-04-03T05:39:57.405Z,2.00
2023-04-03T05:42:24.165Z,2.20
2023-04-03T05:44:51.262Z,2.20
2023-04-03T05:47:18.410Z,2.20
2023-04-03T05:49:46.360Z,2.30
2023-04-03T05:52:19.567Z,2.20
2023-04-03T05:54:49.377Z,2.30
2023-04-03T05:57:17.110Z,2.30
2023-04-03T05:59:44.313Z,5.80
2023-04-03T06:02:14.781Z,2.30
2023-04-03T06:04:41.629Z,2.30
2023-04-03T06:07:11.102Z,2.40
2023-04-03T06:09:37.772Z,2.40
2023-04-03T06:12:04.380Z,2.50
2023-04-03T06:14:31.388Z,2.50
2023-04-03T06:16:58.529Z,2.60
2023-04-03T06:19:25.382Z,2.60
2023-04-03T06:21:51.999Z,2.60
2023-04-03T06:24:19.160Z,2.70
2023-04-03T06:26:46.711Z,2.70
2023-04-03T06:29:15.768Z,2.70
2023-04-03T06:31:42.347Z,2.70
2023-04-03T06:34:09.816Z,2.80
2023-04-03T06:36:36.790Z,2.80
2023-04-03T06:39:04.263Z,2.80
2023-04-03T06:41:31.180Z,2.80
2023-04-03T06:43:59.034Z,2.80
2023-04-03T06:46:27.152Z,2.80
2023-04-03T06:48:54.103Z,3.40
2023-04-03T06:51:28.679Z,2.80
2023-04-03T06:53:56.725Z,2.80
2023-04-03T06:56:24.075Z,2.70
2023-04-03T06:58:51.918Z,2.70
2023-04-03T07:01:20.187Z,2.70
2023-04-03T07:03:47.601Z,2.70
2023-04-03T07:06:14.895Z,2.70
2023-04-03T07:08:41.759Z,2.80
2023-04-03T07:11:08.882Z,2.80
2023-04-03T07:13:35.882Z,3.00
2023-04-03T07:16:03.110Z,3.10
2023-04-03T07:18:29.800Z,3.10
2023-04-03T07:20:56.931Z,3.20
2023-04-03T07:23:23.585Z,3.20
2023-04-03T07:25:51.351Z,3.30
2023-04-03T07:28:18.879Z,3.30
2023-04-03T07:30:46.898Z,3.50
2023-04-03T07:33:14.615Z,3.40
2023-04-03T07:35:41.778Z,3.40
2023-04-03T07:38:09.037Z,3.40
2023-04-03T07:40:36.358Z,3.40
2023-04-03T07:43:03.419Z,3.40
2023-04-03T07:45:30.302Z,6.30
2023-04-03T07:47:57.681Z,3.50
2023-04-03T07:50:24.616Z,3.50
2023-04-03T07:52:51.893Z,3.70
2023-04-03T07:55:18.707Z,3.90
2023-04-03T07:57:45.386Z,3.80
2023-04-03T08:00:13.102Z,3.80
2023-04-03T08:02:42.122Z,3.70
2023-04-03T08:05:09.023Z,3.70
2023-04-03T08:07:37.508Z,3.60
2023-04-03T08:10:04.591Z,3.80
2023-04-03T08:12:32.971Z,3.80
2023-04-03T08:15:01.769Z,4.00
2023-04-03T08:17:28.537Z,4.10
2023-04-03T08:19:55.421Z,5.80
2023-04-03T08:22:22.221Z,4.20
2023-04-03T08:24:58.654Z,4.20
2023-04-03T08:27:28.021Z,4.20
2023-04-03T08:29:54.616Z,4.30
2023-04-03T08:32:21.330Z,4.30
2023-04-03T08:34:48.072Z,4.40
2023-04-03T08:37:14.744Z,4.40
2023-04-03T08:39:41.650Z,4.60
2023-04-03T08:42:32.097Z,4.40
2023-04-03T08:45:25.262Z,4.50
2023-04-03T08:48:03.058Z,4.40
2023-04-03T08:50:32.626Z,4.60
2023-04-03T08:53:00.349Z,6.60
2023-04-03T08:55:29.145Z,4.50
2023-04-03T08:58:03.182Z,7.70
2023-04-03T09:00:45.594Z,4.30
2023-04-03T09:03:17.118Z,4.40
2023-04-03T09:05:50.099Z,4.40
2023-04-03T09:08:23.358Z,4.30
2023-04-03T09:10:50.998Z,4.30
2023-04-03T09:13:30.689Z,4.30
2023-04-03T09:15:57.424Z,4.20
2023-04-03T09:18:33.157Z,4.20
2023-04-03T09:21:21.774Z,4.20
2023-04-03T09:23:52.575Z,4.20
2023-04-03T09:26:22.729Z,4.10
2023-04-03T09:28:51.325Z,4.20
2023-04-03T09:31:25.726Z,7.10
2023-04-03T09:33:57.878Z,4.20
2023-04-03T09:36:41.235Z,5.00
2023-04-03T09:39:11.950Z,4.20
2023-04-03T09:41:38.918Z,4.30
2023-04-03T09:44:18.750Z,4.30
2023-04-03T09:46:45.375Z,4.40
2023-04-03T09:49:12.669Z,4.50
2023-04-03T09:51:39.571Z,4.60
2023-04-03T09:54:27.402Z,4.70
2023-04-03T09:56:56.747Z,4.60
2023-04-03T09:59:25.337Z,4.70
2023-04-03T10:02:18.812Z,4.70
2023-04-03T10:04:47.198Z,4.70
2023-04-03T10:07:29.928Z,4.60
2023-04-03T10:09:58.216Z,4.40
2023-04-03T10:12:24.953Z,4.30
2023-04-03T10:15:01.923Z,4.30
2023-04-03T10:17:33.429Z,4.30
2023-04-03T10:20:08.806Z,4.30
2023-04-03T10:22:35.443Z,4.30
2023-04-03T10:25:15.769Z,5.00
2023-04-03T10:27:42.586Z,4.20
2023-04-03T10:30:22.967Z,4.30
2023-04-03T10:32:59.805Z,4.30
2023-04-03T10:35:35.000Z,4.50
2023-04-03T10:38:16.985Z,7.10
2023-04-03T10:40:57.560Z,4.60
2023-04-03T10:43:24.245Z,4.70
2023-04-03T10:45:51.158Z,4.90
2023-04-03T10:48:36.651Z,4.80
2023-04-03T10:51:09.390Z,4.80
2023-04-03T10:53:58.099Z,4.70
2023-04-03T10:56:39.602Z,4.70
2023-04-03T10:59:06.356Z,4.80
2023-04-03T11:01:35.148Z,7.10
2023-04-03T11:04:04.564Z,5.00
2023-04-03T11:06:40.425Z,5.00
2023-04-03T11:09:22.584Z,5.00
2023-04-03T11:11:50.357Z,5.00
2023-04-03T11:14:32.135Z,7.70
2023-04-03T11:17:17.665Z,4.90
2023-04-03T11:19:56.918Z,4.80
2023-04-03T11:22:27.733Z,4.80
2023-04-03T11:25:05.167Z,4.80
2023-04-03T11:27:36.100Z,5.00
2023-04-03T11:30:06.460Z,5.00
2023-04-03T11:32:39.262Z,5.10
2023-04-03T11:35:06.828Z,5.10
2023-04-03T11:37:39.653Z,5.20
2023-04-03T11:40:20.552Z,5.30
2023-04-03T11:42:48.611Z,5.20
2023-04-03T11:45:25.731Z,5.10
2023-04-03T11:47:53.956Z,5.00
2023-04-03T11:50:36.081Z,5.00
2023-04-03T11:53:09.422Z,5.10
2023-04-03T11:55:37.075Z,5.00
2023-04-03T11:58:14.782Z,5.60
2023-04-03T12:00:44.542Z,5.00
2023-04-03T12:03:26.806Z,5.00
2023-04-03T12:05:58.229Z,5.10
2023-04-03T12:08:25.191Z,5.20
2023-04-03T12:11:14.986Z,5.10
2023-04-03T12:13:42.691Z,5.00
2023-04-03T12:16:23.299Z,5.00
2023-04-03T12:18:50.004Z,5.00
2023-04-03T12:21:20.812Z,4.90
2023-04-03T12:23:58.624Z,4.90
2023-04-03T12:26:32.435Z,4.80
2023-04-03T12:29:18.437Z,6.50
2023-04-03T12:32:04.295Z,4.80
2023-04-03T12:34:40.329Z,4.80
2023-04-03T12:37:18.158Z,4.90
2023-04-03T12:39:44.892Z,4.90
2023-04-03T12:42:18.931Z,5.10
2023-04-03T12:44:55.390Z,5.20
2023-04-03T12:47:39.178Z,5.40
2023-04-03T12:50:16.940Z,5.40
2023-04-03T12:52:46.500Z,5.40
2023-04-03T12:55:21.392Z,5.30
2023-04-03T12:57:48.395Z,5.20
2023-04-03T13:00:23.444Z,5.20
2023-04-03T13:02:50.300Z,5.00
2023-04-03T13:05:20.812Z,5.00
2023-04-03T13:07:59.644Z,5.00
2023-04-03T13:10:26.515Z,4.80
2023-04-03T13:12:54.831Z,4.80
2023-04-03T13:15:24.981Z,4.70
2023-04-03T13:17:53.503Z,4.80
2023-04-03T13:20:25.827Z,5.00
2023-04-03T13:22:58.773Z,5.10
2023-04-03T13:25:27.757Z,5.20
2023-04-03T13:28:03.380Z,5.30
2023-04-03T13:30:40.831Z,5.40
2023-04-03T13:33:20.003Z,5.50
2023-04-03T13:35:47.364Z,5.60
2023-04-03T13:38:20.408Z,5.50
2023-04-03T13:40:48.320Z,5.40
2023-04-03T13:43:22.938Z,5.30
2023-04-03T13:46:06.287Z,5.40
2023-04-03T13:48:37.074Z,5.40
2023-04-03T13:51:17.612Z,5.30
2023-04-03T13:53:50.387Z,5.30
2023-04-03T13:56:27.115Z,5.30
2023-04-03T13:58:59.126Z,5.30
2023-04-03T14:01:26.139Z,5.20
2023-04-03T14:04:02.657Z,5.30
2023-04-03T14:06:30.367Z,5.20
2023-04-03T14:08:56.997Z,5.40
2023-04-03T14:11:25.724Z,5.40
2023-04-03T14:13:52.379Z,5.50
2023-04-03T14:16:20.765Z,5.60
2023-04-03T14:18:48.913Z,5.50
2023-04-03T14:21:17.346Z,5.50
2023-04-03T14:23:44.132Z,5.50
2023-04-03T14:26:12.784Z,5.50
2023-04-03T14:28:43.239Z,8.80
2023-04-03T14:31:14.440Z,5.30
2023-04-03T14:33:43.015Z,5.20
2023-04-03T14:36:14.523Z,5.20
2023-04-03T14:38:42.362Z,5.20
2023-04-03T14:41:16.163Z,5.30
2023-04-03T14:43:44.378Z,5.30
2023-04-03T14:46:15.387Z,5.30
2023-04-03T14:48:42.481Z,5.20
2023-04-03T14:51:11.527Z,5.20
2023-04-03T14:53:39.419Z,5.30
2023-04-03T14:56:32.953Z,7.10
2023-04-03T14:59:03.079Z,5.40
2023-04-03T15:01:30.737Z,8.40
2023-04-03T15:03:57.778Z,5.40
2023-04-03T15:06:25.033Z,5.40
2023-04-03T15:08:51.672Z,5.50
2023-04-03T15:11:18.417Z,7.20
2023-04-03T15:13:45.565Z,5.20
2023-04-03T15:16:17.859Z,5.20
2023-04-03T15:18:45.020Z,5.20
2023-04-03T15:21:11.890Z,5.20
2023-04-03T15:23:38.619Z,6.10
2023-04-03T15:26:05.862Z,5.40
2023-04-03T15:28:40.101Z,5.40
2023-04-03T15:31:07.389Z,5.40
2023-04-03T15:33:35.607Z,8.10
2023-04-03T15:36:07.358Z,5.40
2023-04-03T15:38:39.287Z,5.30
2023-04-03T15:41:06.560Z,5.20
2023-04-03T15:43:34.852Z,5.20
2023-04-03T15:46:02.009Z,5.10
2023-04-03T15:48:29.501Z,5.20
2023-04-03T15:50:57.685Z,5.30
2023-04-03T15:53:25.383Z,5.40
2023-04-03T15:55:52.050Z,5.40
2023-04-03T15:58:18.803Z,5.50
2023-04-03T16:00:45.857Z,4.90
2023-04-03T16:03:15.557Z,8.40
2023-04-03T16:05:42.408Z,5.30
2023-04-03T16:08:09.216Z,7.50
2023-04-03T16:10:36.679Z,5.30
2023-04-03T16:13:04.098Z,5.20
2023-04-03T16:15:31.587Z,5.20
2023-04-03T16:17:59.353Z,5.20
2023-04-03T16:20:26.415Z,5.10
2023-04-03T16:22:53.225Z,5.20
2023-04-03T16:25:20.137Z,5.10
2023-04-03T16:27:47.103Z,5.10
2023-04-03T16:30:14.180Z,7.80
2023-04-03T16:32:41.308Z,5.10
2023-04-03T16:35:08.288Z,5.00
2023-04-03T16:37:35.244Z,5.00
2023-04-03T16:40:02.039Z,5.10
2023-04-03T16:42:28.671Z,7.70
2023-04-03T16:44:55.318Z,5.00
2023-04-03T16:47:22.012Z,5.00
2023-04-03T16:49:48.848Z,4.90
2023-04-03T16:52:15.596Z,4.80
2023-04-03T16:54:42.474Z,5.50
2023-04-03T16:57:09.400Z,4.80
2023-04-03T16:59:36.214Z,4.80
2023-04-03T17:02:03.754Z,4.90
2023-04-03T17:04:30.501Z,4.90
2023-04-03T17:06:57.335Z,4.80
2023-04-03T17:09:24.359Z,4.80
2023-04-03T17:11:50.995Z,4.80
2023-04-03T17:14:17.817Z,4.80
2023-04-03T17:16:45.035Z,4.80
2023-04-03T17:19:12.865Z,4.80
2023-04-03T17:21:40.205Z,4.80
2023-04-03T17:24:09.768Z,3.70
2023-04-03T17:26:37.788Z,4.70
2023-04-03T17:29:04.750Z,4.80
2023-04-03T17:31:31.571Z,4.70
2023-04-03T17:33:58.465Z,4.60
2023-04-03T17:36:25.481Z,4.60
2023-04-03T17:38:52.571Z,4.60
2023-04-03T17:41:19.238Z,4.50
2023-04-03T17:43:46.381Z,4.50
2023-04-03T17:46:13.297Z,4.50
2023-04-03T17:48:41.268Z,4.40
2023-04-03T17:51:09.702Z,4.40
2023-04-03T17:53:36.857Z,4.40
2023-04-03T17:56:23.510Z,4.40
2023-04-03T17:58:50.542Z,4.40
2023-04-03T18:01:18.873Z,4.40
2023-04-03T18:03:46.412Z,4.40
2023-04-03T18:06:15.104Z,4.40
2023-04-03T18:08:44.222Z,4.40
2023-04-03T18:11:11.278Z,4.40
2023-04-03T18:13:38.629Z,4.30
2023-04-03T18:16:07.300Z,5.50
2023-04-03T18:18:34.588Z,4.30
2023-04-03T18:21:01.669Z,4.30
2023-04-03T18:23:31.733Z,4.20
2023-04-03T18:25:59.715Z,4.20
2023-04-03T18:28:27.080Z,4.20
2023-04-03T18:30:53.994Z,4.50
2023-04-03T18:33:20.629Z,4.20
2023-04-03T18:35:47.626Z,4.20
2023-04-03T18:38:14.433Z,4.20
2023-04-03T18:40:42.864Z,6.70
2023-04-03T18:43:09.694Z,7.70
2023-04-03T18:45:36.517Z,4.10
2023-04-03T18:48:03.414Z,4.10
2023-04-03T18:50:30.380Z,4.10
2023-04-03T18:52:57.031Z,4.10
2023-04-03T18:55:23.686Z,4.10
2023-04-03T18:57:50.413Z,4.10
2023-04-03T19:00:17.964Z,4.00
2023-04-03T19:02:45.475Z,4.00
2023-04-03T19:05:13.703Z,4.00
2023-04-03T19:07:41.875Z,3.90
2023-04-03T19:10:09.174Z,3.90
2023-04-03T19:12:35.773Z,3.80
2023-04-03T19:15:02.429Z,3.80
2023-04-03T19:17:29.054Z,3.70
2023-04-03T19:19:55.702Z,3.70
2023-04-03T19:22:22.478Z,3.60
2023-04-03T19:24:49.178Z,3.70
2023-04-03T19:27:15.794Z,3.60
2023-04-03T19:29:42.541Z,3.70
2023-04-03T19:32:10.748Z,3.60
2023-04-03T19:34:38.689Z,3.50
2023-04-03T19:37:06.212Z,3.50
2023-04-03T19:39:35.316Z,3.50
2023-04-03T19:42:03.410Z,3.50
2023-04-03T19:44:32.567Z,3.50
2023-04-03T19:46:59.505Z,3.50
2023-04-03T19:49:26.394Z,3.40
2023-04-03T19:51:56.114Z,3.40
2023-04-03T19:54:23.502Z,3.40
2023-04-03T19:56:50.408Z,3.30
2023-04-03T19:59:17.650Z,3.30
2023-04-03T20:01:46.374Z,3.20
2023-04-03T20:04:13.240Z,3.20
2023-04-03T20:06:39.919Z,3.10
2023-04-03T20:09:06.862Z,3.10
2023-04-03T20:11:34.400Z,3.10
2023-04-03T20:14:01.932Z,3.10
2023-04-03T20:16:29.527Z,3.00
2023-04-03T20:18:56.856Z,3.00
2023-04-03T20:21:30.346Z,6.00
2023-04-03T20:23:57.132Z,3.00
2023-04-03T20:26:27.039Z,3.00
2023-04-03T20:28:55.252Z,3.00
2023-04-03T20:31:23.755Z,2.90
2023-04-03T20:33:50.722Z,2.90
2023-04-03T20:36:18.167Z,5.90
2023-04-03T20:38:45.004Z,2.90
2023-04-03T20:41:11.801Z,2.90
2023-04-03T20:43:40.199Z,2.90
2023-04-03T20:46:07.202Z,2.80
2023-04-03T20:48:33.866Z,2.80
2023-04-03T20:51:08.136Z,2.80
2023-04-03T20:53:34.933Z,2.80
2023-04-03T20:56:01.670Z,2.80
2023-04-03T20:58:33.447Z,2.70
2023-04-03T21:01:00.736Z,2.70
2023-04-03T21:03:29.373Z,4.60
2023-04-03T21:06:02.981Z,2.60
2023-04-03T21:08:48.590Z,2.50
2023-04-03T21:11:34.023Z,2.50
2023-04-03T21:14:19.817Z,2.40
2023-04-03T21:16:46.868Z,2.30
2023-04-03T21:19:13.764Z,2.30
2023-04-03T21:21:40.547Z,2.60
2023-04-03T21:24:10.120Z,2.20
2023-04-03T21:26:38.236Z,2.10
2023-04-03T21:29:08.599Z,2.10
2023-04-03T21:31:53.790Z,2.00
2023-04-03T21:34:21.332Z,2.00
2023-04-03T21:36:51.628Z,1.90
2023-04-03T21:39:20.202Z,1.90
2023-04-03T21:41:47.270Z,1.80
2023-04-03T21:44:14.026Z,1.80
2023-04-03T21:46:40.745Z,1.80
2023-04-03T21:49:07.793Z,1.70
2023-04-03T21:51:35.281Z,0.50
2023-04-03T21:54:02.196Z,1.60
2023-04-03T21:56:31.325Z,1.60
2023-04-03T21:59:00.983Z,1.60
2023-04-03T22:01:28.017Z,4.80
2023-04-03T22:03:57.433Z,1.40
2023-04-03T22:06:24.353Z,1.40
2023-04-03T22:08:51.019Z,1.30
2023-04-03T22:11:18.289Z,1.40
2023-04-03T22:13:45.119Z,1.20
2023-04-03T22:16:12.779Z,1.20
2023-04-03T22:18:39.527Z,1.20
2023-04-03T22:21:09.438Z,1.20
2023-04-03T22:23:36.290Z,1.10
2023-04-03T22:26:07.635Z,1.00
2023-04-03T22:28:38.335Z,0.90
2023-04-03T22:31:08.628Z,0.90
2023-04-03T22:33:38.555Z,0.80
2023-04-03T22:36:05.989Z,0.70
2023-04-03T22:38:33.098Z,0.70
2023-04-03T22:41:01.169Z,1.40
2023-04-03T22:43:28.427Z,0.70
2023-04-03T22:45:55.260Z,0.60
2023-04-03T22:48:22.244Z,0.60
2023-04-03T22:50:49.462Z,0.60
2023-04-03T22:53:16.141Z,0.50
2023-04-03T22:55:42.811Z,0.50
2023-04-03T22:58:09.542Z,2.00
2023-04-03T23:00:36.216Z,0.50
2023-04-03T23:03:04.537Z,0.50
2023-04-03T23:05:31.271Z,0.40
2023-04-03T23:07:58.276Z,0.40
2023-04-03T23:10:24.954Z,0.30
2023-04-03T23:12:51.706Z,0.30
2023-04-03T23:15:19.487Z,0.20
2023-04-03T23:17:47.174Z,0.20
2023-04-03T23:20:13.872Z,0.20
2023-04-03T23:22:42.237Z,0.20
2023-04-03T23:25:08.949Z,0.10
2023-04-03T23:27:35.571Z,0.00
2023-04-03T23:30:02.349Z,0.00
2023-04-03T23:32:30.173Z,0.00
2023-04-03T23:34:56.938Z,0.00
2023-04-03T23:37:23.633Z,0.00
2023-04-03T23:39:50.702Z,-0.10
2023-04-03T23:42:17.421Z,-0.10
2023-04-03T23:44:44.209Z,-0.20
2023-04-03T23:47:10.953Z,-0.10
2023-04-03T23:49:38.752Z,-0.20
2023-04-03T23:52:05.390Z,-0.20
2023-04-03T23:54:32.507Z,-0.30
2023-04-03T23:57:00.917Z,-0.30
2023-04-03T23:59:27.914Z,-0.30
